Weather at Willowdale Airfield [CLOSED]

Public forecast

Using degrees Celsius for public forecast. Weather courtesy of forecast.io.

Closest aviation weather report (METAR) to Willowdale Airfield

Closest report is Billy Bishop Toronto City Centre Airport, 8.4 nm (15.5 km) S.

2024/05/30 03:00 (retrieved 28 minutes ago)

CYTZ 300300Z AUTO 32011G17KT 9SM CLR 14/01 A3005 RMK SLP177

Closest aviation forecast (TAF) to Willowdale Airfield

Forecast is more than 6 hours old.

Closest forecast is Niagara District Airport, 36.1 nm (66.9 km) SSE.

2024/05/29 20:00 (retrieved 7 hours ago)

TAF CYSN 291941Z 2920/3001 36008KT P6SM SCT120 RMK NXT FCST BY 301300Z